| time (UTC) | temp F | wind direction | speed MPH | gust MPH | rain 1hr in | rain 24hr in | rain mn in | humidity % | barometer mb |
| 20260502151929 | 53 | 198 | 6.0 | 11.0 | 0.00 | 0.00 | 0.00 | 68 | 1012.8 |
| 20260502151421 | 52 | 200 | 7.0 | 11.0 | 0.00 | 0.00 | 0.00 | 68 | 1012.7 |
| 20260502150912 | 52 | 56 | 5.0 | 13.0 | 0.00 | 0.00 | 0.00 | 76 | 1012.9 |
| 20260502150424 | 52 | 202 | 7.0 | 13.0 | 0.00 | 0.00 | 0.00 | 74 | 1013.0 |
| 20260502130418 | 48 | 254 | 3.0 | 9.0 | 0.00 | 0.00 | 0.00 | 83 | 1014.0 |
| 20260502123427 | 49 | 256 | 10.0 | 16.0 | 0.00 | 0.00 | 0.00 | 80 | 1013.9 |
| 20260502122919 | 49 | 253 | 8.0 | 15.0 | 0.00 | 0.00 | 0.00 | 79 | 1013.8 |
| 20260502122414 | 49 | 245 | 10.0 | 15.0 | 0.00 | 0.00 | 0.00 | 79 | 1013.7 |
| 20260502121947 | 49 | 253 | 10.0 | 12.0 | 0.00 | 0.00 | 0.00 | 79 | 1013.6 |
| 20260502121418 | 49 | 196 | 8.0 | 11.0 | 0.00 | 0.00 | 0.00 | 78 | 1013.5 |
| 20260502120950 | 49 | 256 | 7.0 | 11.0 | 0.00 | 0.00 | 0.00 | 78 | 1013.3 |
| 20260502120442 | 49 | 243 | 6.0 | 11.0 | 0.00 | 0.00 | 0.00 | 78 | 1013.2 |
| 20260502115913 | 49 | 197 | 6.0 | 12.0 | 0.00 | 0.00 | 0.00 | 78 | 1013.1 |
| 20260502115425 | 49 | 233 | 6.0 | 9.0 | 0.00 | 0.00 | 0.00 | 78 | 1013.2 |
| 20260502114917 | 49 | 209 | 6.0 | 9.0 | 0.00 | 0.00 | 0.00 | 78 | 1013.0 |
| 20260502114428 | 49 | 207 | 4.0 | 7.0 | 0.00 | 0.00 | 0.00 | 79 | 1012.9 |
| 20260502113920 | 48 | 236 | 4.0 | 8.0 | 0.00 | 0.00 | 0.00 | 79 | 1012.8 |
| 20260502113433 | 48 | 196 | 5.0 | 8.0 | 0.00 | 0.00 | 0.00 | 80 | 1012.8 |
| 20260502112928 | 47 | 192 | 4.0 | 6.0 | 0.00 | 0.00 | 0.00 | 80 | 1012.8 |
| 20260502112419 | 47 | 284 | 3.0 | 6.0 | 0.00 | 0.00 | 0.00 | 80 | 1012.6 |
| 20260502111911 | 47 | 207 | 3.0 | 9.0 | 0.00 | 0.00 | 0.00 | 80 | 1012.7 |
| 20260502111444 | 47 | 216 | 3.0 | 9.0 | 0.00 | 0.00 | 0.00 | 80 | 1012.8 |
| 20260502110915 | 47 | 212 | 4.0 | 8.0 | 0.00 | 0.00 | 0.00 | 80 | 1012.9 |
| 20260502110427 | 47 | 219 | 5.0 | 8.0 | 0.00 | 0.00 | 0.00 | 80 | 1012.8 |
| 20260502105919 | 47 | 211 | 5.0 | 9.0 | 0.00 | 0.00 | 0.00 | 79 | 1012.8 |
| 20260502105410 | 47 | 211 | 5.0 | 10.0 | 0.00 | 0.00 | 0.00 | 79 | 1012.8 |
| 20260502104923 | 47 | 204 | 6.0 | 10.0 | 0.00 | 0.00 | 0.00 | 79 | 1012.8 |
| 20260502104418 | 47 | 206 | 6.0 | 10.0 | 0.00 | 0.00 | 0.00 | 79 | 1012.8 |
| 20260502103927 | 47 | 216 | 6.0 | 13.0 | 0.00 | 0.00 | 0.00 | 78 | 1012.6 |
| 20260502103419 | 47 | 205 | 7.0 | 13.0 | 0.00 | 0.00 | 0.00 | 78 | 1012.6 |
| 20260502102911 | 47 | 181 | 5.0 | 10.0 | 0.00 | 0.00 | 0.00 | 78 | 1012.7 |
| 20260502102423 | 47 | 188 | 6.0 | 11.0 | 0.00 | 0.00 | 0.00 | 77 | 1012.8 |
| 20260502101914 | 47 | 204 | 7.0 | 10.0 | 0.00 | 0.00 | 0.00 | 77 | 1012.7 |
| 20260502101427 | 47 | 193 | 6.0 | 8.0 | 0.00 | 0.00 | 0.00 | 77 | 1012.5 |
| 20260502100918 | 47 | 192 | 5.0 | 9.0 | 0.00 | 0.00 | 0.00 | 77 | 1012.5 |
| 20260502100414 | 47 | 193 | 4.0 | 9.0 | 0.00 | 0.00 | 0.00 | 77 | 1012.4 |
| 20260502091414 | 47 | 221 | 5.0 | 8.0 | 0.00 | 0.00 | 0.00 | 78 | 1012.2 |
| 20260502090948 | 47 | 206 | 4.0 | 7.0 | 0.00 | 0.00 | 0.00 | 78 | 1012.2 |
| 20260502090438 | 47 | 184 | 5.0 | 11.0 | 0.00 | 0.00 | 0.00 | 78 | 1012.3 |
| 20260502071415 | 49 | 258 | 3.0 | 7.0 | 0.00 | 0.00 | 0.00 | 69 | 1012.4 |
| 20260502070926 | 49 | 233 | 4.0 | 7.0 | 0.00 | 0.00 | 0.00 | 69 | 1012.4 |
| 20260502070437 | 49 | 237 | 4.0 | 8.0 | 0.00 | 0.00 | 0.00 | 69 | 1012.4 |
| 20260502065927 | 49 | 213 | 3.0 | 8.0 | 0.00 | 0.00 | 0.00 | 68 | 1012.4 |
| 20260502065439 | 50 | 273 | 4.0 | 10.0 | 0.00 | 0.00 | 0.00 | 68 | 1012.5 |
| 20260502064913 | 50 | 243 | 6.0 | 10.0 | 0.00 | 0.00 | 0.00 | 68 | 1012.5 |
| 20260502064424 | 50 | 244 | 6.0 | 10.0 | 0.00 | 0.00 | 0.00 | 68 | 1012.6 |
| 20260502063914 | 50 | 240 | 6.0 | 9.0 | 0.00 | 0.00 | 0.00 | 68 | 1012.6 |
| 20260502063447 | 50 | 246 | 5.0 | 12.0 | 0.00 | 0.00 | 0.00 | 68 | 1012.7 |
| 20260502062916 | 50 | 235 | 8.0 | 12.0 | 0.00 | 0.00 | 0.00 | 68 | 1012.6 |
| 20260502062427 | 50 | 230 | 7.0 | 11.0 | 0.00 | 0.00 | 0.00 | 68 | 1012.6 |
| 20260502061940 | 50 | 235 | 5.0 | 9.0 | 0.00 | 0.00 | 0.00 | 67 | 1012.6 |
| 20260502060921 | 50 | 223 | 5.0 | 9.0 | 0.00 | 0.00 | 0.00 | 67 | 1012.5 |
| 20260502060433 | 49 | 225 | 4.0 | 8.0 | 0.00 | 0.00 | 0.00 | 67 | 1012.5 |
| 20260502055922 | 49 | 235 | 4.0 | 9.0 | 0.00 | 0.00 | 0.00 | 67 | 1012.5 |
| 20260502055417 | 49 | 232 | 4.0 | 9.0 | 0.00 | 0.00 | 0.00 | 67 | 1012.5 |
| 20260502054928 | 49 | 307 | 3.0 | 6.0 | 0.00 | 0.00 | 0.00 | 66 | 1012.4 |
| 20260502054419 | 49 | 214 | 4.0 | 8.0 | 0.00 | 0.00 | 0.00 | 66 | 1012.5 |
| 20260502053911 | 49 | 217 | 4.0 | 7.0 | 0.00 | 0.00 | 0.00 | 66 | 1012.5 |
| 20260502053422 | 49 | 236 | 4.0 | 7.0 | 0.00 | 0.00 | 0.00 | 66 | 1012.6 |
| 20260502052912 | 49 | 231 | 5.0 | 8.0 | 0.00 | 0.00 | 0.00 | 66 | 1012.6 |
| 20260502052423 | 49 | 237 | 5.0 | 8.0 | 0.00 | 0.00 | 0.00 | 66 | 1012.6 |
| 20260502051914 | 50 | 207 | 6.0 | 9.0 | 0.00 | 0.00 | 0.00 | 65 | 1012.7 |
| 20260502051446 | 50 | 204 | 6.0 | 9.0 | 0.00 | 0.00 | 0.00 | 65 | 1012.7 |
| 20260502050920 | 50 | 199 | 3.0 | 6.0 | 0.00 | 0.00 | 0.00 | 65 | 1012.7 |
| 20260502050411 | 50 | 204 | 3.0 | 5.0 | 0.00 | 0.00 | 0.00 | 64 | 1012.6 |
| 20260502045922 | 50 | 199 | 3.0 | 5.0 | 0.00 | 0.00 | 0.00 | 64 | 1012.7 |
| 20260502045412 | 50 | 202 | 4.0 | 7.0 | 0.00 | 0.00 | 0.00 | 63 | 1012.6 |
| 20260502044923 | 50 | 249 | 4.0 | 7.0 | 0.00 | 0.00 | 0.00 | 63 | 1012.5 |
| 20260502044413 | 50 | 213 | 3.0 | 9.0 | 0.00 | 0.00 | 0.00 | 62 | 1012.6 |
| 20260502043924 | 50 | 252 | 5.0 | 10.0 | 0.00 | 0.00 | 0.00 | 62 | 1012.6 |
| 20260502043415 | 51 | 233 | 6.0 | 10.0 | 0.00 | 0.00 | 0.00 | 62 | 1012.6 |
| 20260502042946 | 51 | 249 | 5.0 | 9.0 | 0.00 | 0.00 | 0.00 | 61 | 1012.7 |
| 20260502042419 | 51 | 228 | 7.0 | 13.0 | 0.00 | 0.00 | 0.00 | 61 | 1012.7 |
| 20260502041910 | 51 | 216 | 7.0 | 13.0 | 0.00 | 0.00 | 0.00 | 60 | 1012.8 |
| 20260502041421 | 51 | 230 | 8.0 | 11.0 | 0.00 | 0.00 | 0.00 | 60 | 1012.7 |
| 20260502040912 | 51 | 231 | 8.0 | 11.0 | 0.00 | 0.00 | 0.00 | 59 | 1012.6 |
| 20260502040423 | 51 | 235 | 7.0 | 11.0 | 0.00 | 0.00 | 0.00 | 58 | 1012.7 |
| 20260502035935 | 51 | 235 | 7.0 | 12.0 | 0.00 | 0.00 | 0.00 | 58 | 1012.7 |
| 20260502035425 | 51 | 240 | 8.0 | 12.0 | 0.00 | 0.00 | 0.00 | 57 | 1012.7 |
| 20260502034915 | 51 | 240 | 7.0 | 11.0 | 0.00 | 0.00 | 0.00 | 57 | 1012.5 |
| 20260502034425 | 52 | 238 | 7.0 | 11.0 | 0.00 | 0.00 | 0.00 | 57 | 1012.6 |
| 20260502033920 | 52 | 247 | 8.0 | 14.0 | 0.00 | 0.00 | 0.00 | 56 | 1012.6 |
| 20260502033412 | 52 | 247 | 9.0 | 14.0 | 0.00 | 0.00 | 0.00 | 56 | 1012.5 |
| 20260502032922 | 52 | 245 | 8.0 | 14.0 | 0.00 | 0.00 | 0.00 | 56 | 1012.7 |
| 20260502032434 | 52 | 242 | 8.0 | 14.0 | 0.00 | 0.00 | 0.00 | 55 | 1012.7 |
| 20260502031922 | 52 | 239 | 9.0 | 16.0 | 0.00 | 0.00 | 0.00 | 54 | 1012.7 |
| 20260502031433 | 52 | 219 | 9.0 | 16.0 | 0.00 | 0.00 | 0.00 | 54 | 1012.7 |
| 20260502030924 | 52 | 240 | 9.0 | 15.0 | 0.00 | 0.00 | 0.00 | 53 | 1012.7 |
| 20260502030435 | 52 | 252 | 9.0 | 16.0 | 0.00 | 0.00 | 0.00 | 52 | 1012.6 |
| 20260502025925 | 53 | 237 | 9.0 | 16.0 | 0.00 | 0.00 | 0.00 | 51 | 1012.3 |
| 20260502025416 | 53 | 239 | 10.0 | 16.0 | 0.00 | 0.00 | 0.00 | 51 | 1012.5 |
| 20260502024948 | 53 | 247 | 9.0 | 15.0 | 0.00 | 0.00 | 0.00 | 50 | 1012.6 |
| 20260502024438 | 53 | 242 | 11.0 | 15.0 | 0.00 | 0.00 | 0.00 | 50 | 1012.6 |
| 20260502023911 | 53 | 249 | 9.0 | 14.0 | 0.00 | 0.00 | 0.00 | 49 | 1012.4 |
| 20260502023422 | 53 | 234 | 9.0 | 15.0 | 0.00 | 0.00 | 0.00 | 48 | 1012.5 |
| 20260502022913 | 53 | 249 | 11.0 | 15.0 | 0.00 | 0.00 | 0.00 | 48 | 1012.5 |
| 20260502022425 | 53 | 209 | 10.0 | 18.0 | 0.00 | 0.00 | 0.00 | 47 | 1012.5 |
| 20260502021916 | 54 | 209 | 10.0 | 14.0 | 0.00 | 0.00 | 0.00 | 45 | 1012.5 |
| 20260502021408 | 54 | 248 | 8.0 | 12.0 | 0.00 | 0.00 | 0.00 | 43 | 1012.5 |
| 20260502020920 | 56 | 206 | 8.0 | 12.0 | 0.00 | 0.00 | 0.00 | 41 | 1012.4 |
| 20260502020412 | 57 | 233 | 5.0 | 7.0 | 0.00 | 0.00 | 0.00 | 36 | 1012.2 |
| 20260502015928 | 57 | 234 | 4.0 | 6.0 | 0.00 | 0.00 | 0.00 | 36 | 1012.1 |
| 20260502015419 | 57 | 237 | 4.0 | 5.0 | 0.00 | 0.00 | 0.00 | 35 | 1012.1 |
| 20260502014911 | 57 | 233 | 4.0 | 4.0 | 0.00 | 0.00 | 0.00 | 35 | 1012.1 |
| 20260502014423 | 57 | 242 | 4.0 | 5.0 | 0.00 | 0.00 | 0.00 | 35 | 1012.1 |
| 20260502013915 | 57 | 243 | 5.0 | 5.0 | 0.00 | 0.00 | 0.00 | 35 | 1012.1 |
| 20260502013427 | 57 | 249 | 5.0 | 5.0 | 0.00 | 0.00 | 0.00 | 35 | 1012.2 |
| 20260502012919 | 57 | 249 | 5.0 | 6.0 | 0.00 | 0.00 | 0.00 | 35 | 1012.2 |
| 20260502012411 | 57 | 249 | 4.0 | 6.0 | 0.00 | 0.00 | 0.00 | 35 | 1012.2 |
| 20260502011927 | 57 | 249 | 5.0 | 6.0 | 0.00 | 0.00 | 0.00 | 35 | 1012.2 |
| 20260502011418 | 57 | 242 | 4.0 | 5.0 | 0.00 | 0.00 | 0.00 | 35 | 1012.0 |
| 20260502010909 | 57 | 244 | 4.0 | 5.0 | 0.00 | 0.00 | 0.00 | 35 | 1012.0 |
| 20260502010421 | 57 | 252 | 3.0 | 4.0 | 0.00 | 0.00 | 0.00 | 35 | 1011.9 |
| 20260502005913 | 58 | 265 | 4.0 | 4.0 | 0.00 | 0.00 | 0.00 | 35 | 1011.7 |
| 20260502005425 | 58 | 268 | 3.0 | 4.0 | 0.00 | 0.00 | 0.00 | 35 | 1011.7 |
| 20260502004917 | 57 | 275 | 2.0 | 3.0 | 0.00 | 0.00 | 0.00 | 35 | 1011.7 |
| 20260502004449 | 57 | 297 | 1.0 | 2.0 | 0.00 | 0.00 | 0.00 | 35 | 1011.6 |
| 20260502003919 | 57 | 298 | 2.0 | 2.0 | 0.00 | 0.00 | 0.00 | 35 | 1011.6 |
| 20260502003415 | 58 | 291 | 1.0 | 3.0 | 0.00 | 0.00 | 0.00 | 35 | 1011.5 |
| 20260502002927 | 57 | 281 | 2.0 | 3.0 | 0.00 | 0.00 | 0.00 | 35 | 1011.4 |
| 20260502002418 | 57 | 275 | 2.0 | 3.0 | 0.00 | 0.00 | 0.00 | 35 | 1011.4 |
| 20260502001910 | 57 | 295 | 1.0 | 4.0 | 0.00 | 0.00 | 0.00 | 35 | 1011.2 |
| 20260502001422 | 58 | 286 | 2.0 | 4.0 | 0.00 | 0.00 | 0.00 | 35 | 1011.0 |
| 20260502000935 | 58 | 276 | 2.0 | 4.0 | 0.00 | 0.00 | 0.00 | 35 | 1011.0 |
| 20260502000426 | 58 | 263 | 1.0 | 3.0 | 0.00 | 0.00 | 0.00 | 35 | 1010.8 |
| 20260501235917 | 58 | 307 | 1.0 | 3.0 | 0.00 | 0.00 | 0.00 | 35 | 1010.8 |
| 20260501235413 | 58 | 298 | 2.0 | 3.0 | 0.00 | 0.00 | 0.00 | 34 | 1010.8 |
| 20260501234945 | 58 | 285 | 2.0 | 5.0 | 0.00 | 0.00 | 0.00 | 34 | 1010.8 |
| 20260501234436 | 58 | 280 | 2.0 | 6.0 | 0.00 | 0.00 | 0.00 | 34 | 1010.7 |
| 20260501233927 | 59 | 264 | 4.0 | 7.0 | 0.00 | 0.00 | 0.00 | 34 | 1010.6 |
| 20260501233418 | 59 | 260 | 3.0 | 9.0 | 0.00 | 0.00 | 0.00 | 33 | 1010.6 |
| 20260501232910 | 60 | 254 | 3.0 | 7.0 | 0.00 | 0.00 | 0.00 | 33 | 1010.5 |
| 20260501232422 | 60 | 278 | 3.0 | 8.0 | 0.00 | 0.00 | 0.00 | 33 | 1010.4 |
| 20260501231914 | 60 | 260 | 5.0 | 8.0 | 0.00 | 0.00 | 0.00 | 33 | 1010.3 |
| 20260501231426 | 60 | 283 | 5.0 | 9.0 | 0.00 | 0.00 | 0.00 | 32 | 1010.3 |
| 20260501230938 | 60 | 254 | 6.0 | 9.0 | 0.00 | 0.00 | 0.00 | 32 | 1010.3 |
| 20260501230413 | 61 | 299 | 6.0 | 11.0 | 0.00 | 0.00 | 0.00 | 32 | 1010.2 |
| 20260501225925 | 61 | 278 | 6.0 | 10.0 | 0.00 | 0.00 | 0.00 | 32 | 1010.2 |
| 20260501225437 | 61 | 255 | 4.0 | 7.0 | 0.00 | 0.00 | 0.00 | 32 | 1010.1 |
| 20260501224908 | 61 | 338 | 2.0 | 10.0 | 0.00 | 0.00 | 0.00 | 31 | 1010.0 |
| 20260501224420 | 61 | 280 | 4.0 | 15.0 | 0.00 | 0.00 | 0.00 | 33 | 1010.0 |
| 20260501223912 | 61 | 256 | 7.0 | 15.0 | 0.00 | 0.00 | 0.00 | 31 | 1009.9 |
| 20260501223424 | 61 | 254 | 8.0 | 14.0 | 0.00 | 0.00 | 0.00 | 31 | 1009.9 |
| 20260501222915 | 61 | 264 | 9.0 | 14.0 | 0.00 | 0.00 | 0.00 | 31 | 1009.8 |
| 20260501222427 | 61 | 294 | 8.0 | 13.0 | 0.00 | 0.00 | 0.00 | 31 | 1009.7 |
| 20260501221923 | 61 | 287 | 9.0 | 13.0 | 0.00 | 0.00 | 0.00 | 32 | 1009.7 |
| 20260501221415 | 61 | 280 | 4.0 | 11.0 | 0.00 | 0.00 | 0.00 | 34 | 1009.7 |
| 20260501220927 | 61 | 263 | 6.0 | 12.0 | 0.00 | 0.00 | 0.00 | 31 | 1009.7 |
| 20260501220418 | 61 | 107 | 5.0 | 16.0 | 0.00 | 0.00 | 0.00 | 33 | 1009.6 |
| 20260501215422 | 61 | 240 | 10.0 | 17.0 | 0.00 | 0.00 | 0.00 | 32 | 1009.7 |
| 20260501214914 | 61 | 254 | 8.0 | 15.0 | 0.00 | 0.00 | 0.00 | 32 | 1009.6 |
| 20260501214426 | 60 | 276 | 10.0 | 15.0 | 0.00 | 0.00 | 0.00 | 31 | 1009.6 |
| 20260501213922 | 60 | 308 | 8.0 | 14.0 | 0.00 | 0.00 | 0.00 | 31 | 1009.5 |
| 20260501213414 | 61 | 276 | 8.0 | 16.0 | 0.00 | 0.00 | 0.00 | 32 | 1009.5 |
| 20260501212926 | 60 | 285 | 7.0 | 16.0 | 0.00 | 0.00 | 0.00 | 34 | 1009.6 |
| 20260501212417 | 61 | 268 | 7.0 | 14.0 | 0.00 | 0.00 | 0.00 | 32 | 1009.5 |
| 20260501211909 | 61 | 252 | 6.0 | 11.0 | 0.00 | 0.00 | 0.00 | 32 | 1009.6 |
| 20260501211421 | 61 | 342 | 3.0 | 12.0 | 0.00 | 0.00 | 0.00 | 34 | 1009.5 |
| 20260501210913 | 61 | 259 | 6.0 | 14.0 | 0.00 | 0.00 | 0.00 | 33 | 1009.5 |
| 20260501210446 | 61 | 263 | 9.0 | 24.0 | 0.00 | 0.00 | 0.00 | 32 | 1009.6 |
| 20260501205917 | 61 | 285 | 13.0 | 25.0 | 0.00 | 0.00 | 0.00 | 32 | 1009.6 |
| 20260501205412 | 60 | 287 | 8.0 | 25.0 | 0.00 | 0.00 | 0.00 | 32 | 1009.4 |
| 20260501204924 | 61 | 278 | 9.0 | 17.0 | 0.00 | 0.00 | 0.00 | 34 | 1009.4 |
| 20260501204416 | 60 | 293 | 11.0 | 17.0 | 0.00 | 0.00 | 0.00 | 32 | 1009.4 |
| 20260501203948 | 61 | 254 | 7.0 | 15.0 | 0.00 | 0.00 | 0.00 | 34 | 1009.4 |
| 20260501203419 | 60 | 256 | 9.0 | 21.0 | 0.00 | 0.00 | 0.00 | 34 | 1009.4 |
| 20260501202911 | 60 | 271 | 14.0 | 21.0 | 0.00 | 0.00 | 0.00 | 32 | 1009.2 |
| 20260501202423 | 60 | 312 | 7.0 | 17.0 | 0.00 | 0.00 | 0.00 | 33 | 1009.4 |
| 20260501201914 | 60 | 309 | 9.0 | 17.0 | 0.00 | 0.00 | 0.00 | 33 | 1009.3 |
| 20260501201410 | 60 | 278 | 7.0 | 19.0 | 0.00 | 0.00 | 0.00 | 32 | 1009.5 |
| 20260501200922 | 60 | 271 | 12.0 | 23.0 | 0.00 | 0.00 | 0.00 | 34 | 1009.6 |
| 20260501200414 | 60 | 299 | 11.0 | 23.0 | 0.00 | 0.00 | 0.00 | 35 | 1009.5 |
| 20260501195925 | 60 | 297 | 8.0 | 21.0 | 0.00 | 0.00 | 0.00 | 33 | 1009.6 |
| 20260501195417 | 60 | 262 | 13.0 | 20.0 | 0.00 | 0.00 | 0.00 | 31 | 1009.5 |
| 20260501194908 | 60 | 270 | 11.0 | 20.0 | 0.00 | 0.00 | 0.00 | 32 | 1009.6 |
| 20260501194441 | 59 | 278 | 12.0 | 20.0 | 0.00 | 0.00 | 0.00 | 33 | 1009.5 |
| 20260501193932 | 59 | 282 | 14.0 | 25.0 | 0.00 | 0.00 | 0.00 | 33 | 1009.6 |
| 20260501193423 | 59 | 285 | 8.0 | 23.0 | 0.00 | 0.00 | 0.00 | 38 | 1009.5 |
| 20260501192915 | 59 | 247 | 9.0 | 25.0 | 0.00 | 0.00 | 0.00 | 33 | 1009.7 |
| 20260501192432 | 59 | 266 | 10.0 | 25.0 | 0.00 | 0.00 | 0.00 | 35 | 1009.7 |
| 20260501191923 | 59 | 249 | 12.0 | 25.0 | 0.00 | 0.00 | 0.00 | 35 | 1009.7 |
| 20260501191414 | 59 | 254 | 14.0 | 21.0 | 0.00 | 0.00 | 0.00 | 34 | 1009.8 |
| 20260501190926 | 58 | 246 | 4.0 | 15.0 | 0.00 | 0.00 | 0.00 | 39 | 1009.9 |
| 20260501190418 | 58 | 250 | 9.0 | 20.0 | 0.00 | 0.00 | 0.00 | 39 | 1010.3 |
| 20260501185911 | 58 | 278 | 12.0 | 20.0 | 0.00 | 0.00 | 0.00 | 37 | 1010.1 |
| 20260501185443 | 58 | 277 | 7.0 | 18.0 | 0.00 | 0.00 | 0.00 | 40 | 1010.0 |
| 20260501184935 | 58 | 299 | 7.0 | 17.0 | 0.00 | 0.00 | 0.00 | 39 | 1010.1 |
| 20260501184426 | 58 | 282 | 10.0 | 18.0 | 0.00 | 0.00 | 0.00 | 40 | 1010.1 |
| 20260501183918 | 57 | 298 | 12.0 | 21.0 | 0.00 | 0.00 | 0.00 | 40 | 1010.1 |
| 20260501183414 | 57 | 270 | 13.0 | 22.0 | 0.00 | 0.00 | 0.00 | 40 | 1010.3 |
| 20260501182926 | 58 | 254 | 13.0 | 22.0 | 0.00 | 0.00 | 0.00 | 40 | 1010.1 |
| 20260501182418 | 58 | 283 | 14.0 | 27.0 | 0.00 | 0.00 | 0.00 | 40 | 1010.2 |
| 20260501181909 | 57 | 244 | 17.0 | 23.0 | 0.00 | 0.00 | 0.00 | 41 | 1010.2 |
| 20260501181421 | 57 | 266 | 15.0 | 22.0 | 0.00 | 0.00 | 0.00 | 41 | 1010.1 |
| 20260501180934 | 56 | 272 | 8.0 | 25.0 | 0.00 | 0.00 | 0.00 | 45 | 1010.3 |
| 20260501180446 | 56 | 307 | 16.0 | 25.0 | 0.00 | 0.00 | 0.00 | 43 | 1010.3 |
| 20260501175917 | 56 | 301 | 11.0 | 15.0 | 0.00 | 0.00 | 0.00 | 42 | 1010.4 |
| 20260501175429 | 56 | 293 | 6.0 | 17.0 | 0.00 | 0.00 | 0.00 | 47 | 1010.4 |
| 20260501174921 | 56 | 258 | 10.0 | 17.0 | 0.00 | 0.00 | 0.00 | 43 | 1010.5 |
| 20260501174417 | 56 | 280 | 7.0 | 16.0 | 0.00 | 0.00 | 0.00 | 50 | 1010.4 |
| 20260501173908 | 56 | 306 | 7.0 | 14.0 | 0.00 | 0.00 | 0.00 | 45 | 1010.5 |
| 20260501173441 | 56 | 246 | 8.0 | 25.0 | 0.00 | 0.00 | 0.00 | 46 | 1010.6 |
| 20260501172912 | 55 | 280 | 14.0 | 25.0 | 0.00 | 0.00 | 0.00 | 45 | 1010.5 |
| 20260501172424 | 55 | 287 | 10.0 | 17.0 | 0.00 | 0.00 | 0.00 | 46 | 1010.5 |
| 20260501171916 | 55 | 287 | 8.0 | 17.0 | 0.00 | 0.00 | 0.00 | 48 | 1010.5 |
| 20260501171428 | 55 | 281 | 8.0 | 18.0 | 0.00 | 0.00 | 0.00 | 49 | 1010.6 |
| 20260501170919 | 55 | 305 | 14.0 | 18.0 | 0.00 | 0.00 | 0.00 | 45 | 1010.7 |
| 20260501170411 | 54 | 278 | 6.0 | 19.0 | 0.00 | 0.00 | 0.00 | 49 | 1010.7 |
| 20260501165907 | 54 | 252 | 10.0 | 19.0 | 0.00 | 0.00 | 0.00 | 48 | 1010.6 |
| 20260501165419 | 54 | 258 | 10.0 | 18.0 | 0.00 | 0.01 | 0.00 | 49 | 1010.7 |
| 20260501164911 | 54 | 254 | 11.0 | 18.0 | 0.00 | 0.01 | 0.00 | 48 | 1010.6 |
| 20260501164423 | 55 | 274 | 6.0 | 20.0 | 0.00 | 0.01 | 0.00 | 49 | 1010.9 |
| 20260501163914 | 54 | 235 | 10.0 | 21.0 | 0.00 | 0.01 | 0.00 | 48 | 1010.8 |
| 20260501163448 | 54 | 252 | 13.0 | 21.0 | 0.00 | 0.01 | 0.00 | 47 | 1010.7 |
| 20260501162918 | 53 | 304 | 7.0 | 16.0 | 0.00 | 0.01 | 0.00 | 48 | 1010.8 |
| 20260501162409 | 54 | 288 | 10.0 | 16.0 | 0.00 | 0.01 | 0.00 | 49 | 1010.8 |
| 20260501161920 | 53 | 306 | 6.0 | 19.0 | 0.00 | 0.01 | 0.00 | 55 | 1010.8 |
| 20260501161436 | 53 | 297 | 11.0 | 21.0 | 0.00 | 0.01 | 0.00 | 52 | 1010.9 |
| 20260501160927 | 53 | 272 | 13.0 | 21.0 | 0.00 | 0.01 | 0.00 | 52 | 1010.9 |
| 20260501160439 | 52 | 262 | 13.0 | 22.0 | 0.00 | 0.01 | 0.00 | 52 | 1010.9 |
| 20260501155909 | 52 | 237 | 16.0 | 22.0 | 0.00 | 0.01 | 0.00 | 52 | 1011.1 |
| 20260501155420 | 52 | 253 | 11.0 | 22.0 | 0.00 | 0.03 | 0.00 | 55 | 1011.0 |
| 20260501153915 | 52 | 282 | 10.0 | 17.0 | 0.00 | 0.03 | 0.00 | 54 | 1011.0 |
| 20260501153425 | 52 | 309 | 10.0 | 14.0 | 0.00 | 0.03 | 0.00 | 54 | 1011.3 |
| 20260501152920 | 51 | 298 | 7.0 | 15.0 | 0.00 | 0.03 | 0.00 | 59 | 1011.4 |